sensor_id;sensor_type;location;lat;lon;timestamp;temperature;humidity
2935;DHT22;2462;51.456;7.248;2023-04-24T00:01:40;18.30;96.80
2935;DHT22;2462;51.456;7.248;2023-04-24T00:04:08;18.30;96.90
2935;DHT22;2462;51.456;7.248;2023-04-24T00:06:36;18.30;96.90
2935;DHT22;2462;51.456;7.248;2023-04-24T00:09:03;18.30;96.90
2935;DHT22;2462;51.456;7.248;2023-04-24T00:11:29;18.30;96.90
2935;DHT22;2462;51.456;7.248;2023-04-24T00:13:56;18.30;96.90
2935;DHT22;2462;51.456;7.248;2023-04-24T00:16:22;18.20;96.90
2935;DHT22;2462;51.456;7.248;2023-04-24T00:18:48;18.20;96.90
2935;DHT22;2462;51.456;7.248;2023-04-24T00:21:14;18.20;96.90
2935;DHT22;2462;51.456;7.248;2023-04-24T00:26:09;18.20;97.10
2935;DHT22;2462;51.456;7.248;2023-04-24T00:28:34;18.20;96.70
2935;DHT22;2462;51.456;7.248;2023-04-24T00:31:00;18.20;97.00
2935;DHT22;2462;51.456;7.248;2023-04-24T00:33:26;18.20;97.00
2935;DHT22;2462;51.456;7.248;2023-04-24T00:35:51;18.20;97.00
2935;DHT22;2462;51.456;7.248;2023-04-24T00:38:17;18.10;97.00
2935;DHT22;2462;51.456;7.248;2023-04-24T00:40:42;18.10;97.10
2935;DHT22;2462;51.456;7.248;2023-04-24T00:43:09;18.10;97.10
2935;DHT22;2462;51.456;7.248;2023-04-24T00:45:35;18.10;97.10
2935;DHT22;2462;51.456;7.248;2023-04-24T00:48:01;18.00;97.10
2935;DHT22;2462;51.456;7.248;2023-04-24T00:50:28;18.00;97.10
2935;DHT22;2462;51.456;7.248;2023-04-24T00:52:53;18.00;97.10
2935;DHT22;2462;51.456;7.248;2023-04-24T00:55:19;18.00;97.10
2935;DHT22;2462;51.456;7.248;2023-04-24T00:57:45;18.00;97.20
2935;DHT22;2462;51.456;7.248;2023-04-24T01:00:12;18.00;97.20
2935;DHT22;2462;51.456;7.248;2023-04-24T01:02:43;18.00;97.20
2935;DHT22;2462;51.456;7.248;2023-04-24T01:05:11;17.90;97.20
2935;DHT22;2462;51.456;7.248;2023-04-24T01:07:39;17.90;97.20
2935;DHT22;2462;51.456;7.248;2023-04-24T01:10:07;17.90;97.30
2935;DHT22;2462;51.456;7.248;2023-04-24T01:12:33;17.90;97.30
2935;DHT22;2462;51.456;7.248;2023-04-24T01:14:59;17.90;97.30
2935;DHT22;2462;51.456;7.248;2023-04-24T01:17:24;17.80;97.20
2935;DHT22;2462;51.456;7.248;2023-04-24T01:19:50;17.80;97.30
2935;DHT22;2462;51.456;7.248;2023-04-24T01:22:19;17.80;97.30
2935;DHT22;2462;51.456;7.248;2023-04-24T01:24:46;17.80;97.30
2935;DHT22;2462;51.456;7.248;2023-04-24T01:29:37;17.80;97.40
2935;DHT22;2462;51.456;7.248;2023-04-24T01:32:03;17.80;97.50
2935;DHT22;2462;51.456;7.248;2023-04-24T01:34:29;17.70;97.50
2935;DHT22;2462;51.456;7.248;2023-04-24T01:36:55;17.70;97.50
2935;DHT22;2462;51.456;7.248;2023-04-24T01:39:22;17.70;97.50
2935;DHT22;2462;51.456;7.248;2023-04-24T01:41:48;17.70;97.40
2935;DHT22;2462;51.456;7.248;2023-04-24T01:44:15;17.70;97.80
2935;DHT22;2462;51.456;7.248;2023-04-24T01:46:41;17.70;97.50
2935;DHT22;2462;51.456;7.248;2023-04-24T01:49:07;17.70;97.50
2935;DHT22;2462;51.456;7.248;2023-04-24T01:51:32;17.60;97.50
2935;DHT22;2462;51.456;7.248;2023-04-24T01:53:58;17.60;97.50
2935;DHT22;2462;51.456;7.248;2023-04-24T01:56:24;17.60;97.50
2935;DHT22;2462;51.456;7.248;2023-04-24T01:58:52;17.60;97.60
2935;DHT22;2462;51.456;7.248;2023-04-24T02:01:23;17.60;97.60
2935;DHT22;2462;51.456;7.248;2023-04-24T02:03:49;17.60;97.70
2935;DHT22;2462;51.456;7.248;2023-04-24T02:06:14;17.60;97.60
2935;DHT22;2462;51.456;7.248;2023-04-24T02:08:40;17.60;97.70
2935;DHT22;2462;51.456;7.248;2023-04-24T02:11:06;17.60;97.70
2935;DHT22;2462;51.456;7.248;2023-04-24T02:13:31;17.60;97.70
2935;DHT22;2462;51.456;7.248;2023-04-24T02:15:58;17.50;97.70
2935;DHT22;2462;51.456;7.248;2023-04-24T02:18:24;17.50;97.70
2935;DHT22;2462;51.456;7.248;2023-04-24T02:20:49;17.50;97.70
2935;DHT22;2462;51.456;7.248;2023-04-24T02:23:15;17.50;97.70
2935;DHT22;2462;51.456;7.248;2023-04-24T02:25:41;17.50;97.70
2935;DHT22;2462;51.456;7.248;2023-04-24T02:28:06;17.50;97.80
2935;DHT22;2462;51.456;7.248;2023-04-24T02:30:32;17.50;97.80
2935;DHT22;2462;51.456;7.248;2023-04-24T02:32:57;17.40;97.80
2935;DHT22;2462;51.456;7.248;2023-04-24T02:35:23;17.40;97.80
2935;DHT22;2462;51.456;7.248;2023-04-24T02:37:48;17.40;97.80
2935;DHT22;2462;51.456;7.248;2023-04-24T02:40:14;17.40;97.90
2935;DHT22;2462;51.456;7.248;2023-04-24T02:42:39;17.40;97.90
2935;DHT22;2462;51.456;7.248;2023-04-24T02:45:05;17.40;97.90
2935;DHT22;2462;51.456;7.248;2023-04-24T02:47:31;17.40;97.90
2935;DHT22;2462;51.456;7.248;2023-04-24T02:49:57;17.30;97.90
2935;DHT22;2462;51.456;7.248;2023-04-24T02:52:22;17.30;97.90
2935;DHT22;2462;51.456;7.248;2023-04-24T02:54:48;17.30;97.90
2935;DHT22;2462;51.456;7.248;2023-04-24T02:57:13;17.30;98.30
2935;DHT22;2462;51.456;7.248;2023-04-24T02:59:39;17.30;98.00
2935;DHT22;2462;51.456;7.248;2023-04-24T03:02:04;17.20;97.90
2935;DHT22;2462;51.456;7.248;2023-04-24T03:04:30;17.20;98.00
2935;DHT22;2462;51.456;7.248;2023-04-24T03:06:57;17.20;98.00
2935;DHT22;2462;51.456;7.248;2023-04-24T03:09:23;17.20;98.00
2935;DHT22;2462;51.456;7.248;2023-04-24T03:11:48;17.20;98.00
2935;DHT22;2462;51.456;7.248;2023-04-24T03:14:15;17.20;98.00
2935;DHT22;2462;51.456;7.248;2023-04-24T03:16:40;17.20;98.10
2935;DHT22;2462;51.456;7.248;2023-04-24T03:19:06;17.20;98.10
2935;DHT22;2462;51.456;7.248;2023-04-24T03:21:31;17.20;98.10
2935;DHT22;2462;51.456;7.248;2023-04-24T03:23:57;17.10;98.10
2935;DHT22;2462;51.456;7.248;2023-04-24T03:26:23;17.20;98.20
2935;DHT22;2462;51.456;7.248;2023-04-24T03:28:48;17.10;98.20
2935;DHT22;2462;51.456;7.248;2023-04-24T03:31:14;17.20;98.20
2935;DHT22;2462;51.456;7.248;2023-04-24T03:33:40;17.10;98.10
2935;DHT22;2462;51.456;7.248;2023-04-24T03:36:06;17.10;98.10
2935;DHT22;2462;51.456;7.248;2023-04-24T03:38:32;17.10;98.20
2935;DHT22;2462;51.456;7.248;2023-04-24T03:40:57;17.10;98.20
2935;DHT22;2462;51.456;7.248;2023-04-24T03:43:23;17.10;98.20
2935;DHT22;2462;51.456;7.248;2023-04-24T03:45:50;17.10;98.20
2935;DHT22;2462;51.456;7.248;2023-04-24T03:48:16;17.10;98.20
2935;DHT22;2462;51.456;7.248;2023-04-24T03:50:41;17.10;98.30
2935;DHT22;2462;51.456;7.248;2023-04-24T03:53:07;17.10;98.30
2935;DHT22;2462;51.456;7.248;2023-04-24T03:55:32;17.10;98.30
2935;DHT22;2462;51.456;7.248;2023-04-24T03:57:58;17.10;98.30
2935;DHT22;2462;51.456;7.248;2023-04-24T04:00:23;17.10;98.30
2935;DHT22;2462;51.456;7.248;2023-04-24T04:02:49;17.10;98.30
2935;DHT22;2462;51.456;7.248;2023-04-24T04:05:15;17.10;98.30
2935;DHT22;2462;51.456;7.248;2023-04-24T04:07:40;17.00;98.30
2935;DHT22;2462;51.456;7.248;2023-04-24T04:10:06;17.00;98.30
2935;DHT22;2462;51.456;7.248;2023-04-24T04:12:32;17.00;98.30
2935;DHT22;2462;51.456;7.248;2023-04-24T04:14:58;17.00;98.30
2935;DHT22;2462;51.456;7.248;2023-04-24T04:17:23;17.00;98.30
2935;DHT22;2462;51.456;7.248;2023-04-24T04:19:49;17.00;98.30
2935;DHT22;2462;51.456;7.248;2023-04-24T04:22:15;17.00;98.40
2935;DHT22;2462;51.456;7.248;2023-04-24T04:24:41;17.00;98.40
2935;DHT22;2462;51.456;7.248;2023-04-24T04:27:07;17.00;98.40
2935;DHT22;2462;51.456;7.248;2023-04-24T04:29:33;17.00;98.40
2935;DHT22;2462;51.456;7.248;2023-04-24T04:32:00;17.00;98.40
2935;DHT22;2462;51.456;7.248;2023-04-24T04:34:26;17.00;98.40
2935;DHT22;2462;51.456;7.248;2023-04-24T04:36:52;17.00;98.50
2935;DHT22;2462;51.456;7.248;2023-04-24T04:39:17;17.00;98.50
2935;DHT22;2462;51.456;7.248;2023-04-24T04:41:44;17.00;98.50
2935;DHT22;2462;51.456;7.248;2023-04-24T04:44:09;17.00;98.50
2935;DHT22;2462;51.456;7.248;2023-04-24T04:46:35;17.00;98.50
2935;DHT22;2462;51.456;7.248;2023-04-24T04:49:02;17.00;98.50
2935;DHT22;2462;51.456;7.248;2023-04-24T04:51:28;17.00;98.50
2935;DHT22;2462;51.456;7.248;2023-04-24T04:53:53;16.90;98.50
2935;DHT22;2462;51.456;7.248;2023-04-24T04:56:19;17.00;98.60
2935;DHT22;2462;51.456;7.248;2023-04-24T04:58:45;17.00;98.60
2935;DHT22;2462;51.456;7.248;2023-04-24T05:01:10;16.90;98.50
2935;DHT22;2462;51.456;7.248;2023-04-24T05:03:36;17.00;98.50
2935;DHT22;2462;51.456;7.248;2023-04-24T05:06:01;17.00;98.60
2935;DHT22;2462;51.456;7.248;2023-04-24T05:08:27;17.00;98.60
2935;DHT22;2462;51.456;7.248;2023-04-24T05:10:53;17.00;98.60
2935;DHT22;2462;51.456;7.248;2023-04-24T05:13:19;17.00;98.60
2935;DHT22;2462;51.456;7.248;2023-04-24T05:15:45;17.00;98.60
2935;DHT22;2462;51.456;7.248;2023-04-24T05:18:11;17.00;98.60
2935;DHT22;2462;51.456;7.248;2023-04-24T05:20:36;17.00;98.60
2935;DHT22;2462;51.456;7.248;2023-04-24T05:23:02;17.00;98.60
2935;DHT22;2462;51.456;7.248;2023-04-24T05:25:27;17.00;98.60
2935;DHT22;2462;51.456;7.248;2023-04-24T05:27:53;17.10;98.60
2935;DHT22;2462;51.456;7.248;2023-04-24T05:30:19;17.10;98.50
2935;DHT22;2462;51.456;7.248;2023-04-24T05:32:45;17.10;98.50
2935;DHT22;2462;51.456;7.248;2023-04-24T05:35:10;17.10;98.50
2935;DHT22;2462;51.456;7.248;2023-04-24T05:37:36;17.10;98.50
2935;DHT22;2462;51.456;7.248;2023-04-24T05:40:01;17.10;98.60
2935;DHT22;2462;51.456;7.248;2023-04-24T05:42:29;17.10;98.60
2935;DHT22;2462;51.456;7.248;2023-04-24T05:44:55;17.10;98.60
2935;DHT22;2462;51.456;7.248;2023-04-24T05:47:20;17.10;98.60
2935;DHT22;2462;51.456;7.248;2023-04-24T05:49:47;17.10;98.60
2935;DHT22;2462;51.456;7.248;2023-04-24T05:52:13;17.10;98.70
2935;DHT22;2462;51.456;7.248;2023-04-24T05:54:39;17.10;98.70
2935;DHT22;2462;51.456;7.248;2023-04-24T05:57:04;17.10;98.70
2935;DHT22;2462;51.456;7.248;2023-04-24T05:59:33;17.10;98.70
2935;DHT22;2462;51.456;7.248;2023-04-24T06:01:59;17.10;98.70
2935;DHT22;2462;51.456;7.248;2023-04-24T06:04:25;17.10;98.80
2935;DHT22;2462;51.456;7.248;2023-04-24T06:06:51;17.10;98.70
2935;DHT22;2462;51.456;7.248;2023-04-24T06:09:21;17.10;98.70
2935;DHT22;2462;51.456;7.248;2023-04-24T06:11:47;17.10;98.70
2935;DHT22;2462;51.456;7.248;2023-04-24T06:14:12;17.10;98.80
2935;DHT22;2462;51.456;7.248;2023-04-24T06:16:39;17.20;99.00
2935;DHT22;2462;51.456;7.248;2023-04-24T06:19:05;17.30;99.40
2935;DHT22;2462;51.456;7.248;2023-04-24T06:21:31;17.30;99.50
2935;DHT22;2462;51.456;7.248;2023-04-24T06:23:56;17.30;99.50
2935;DHT22;2462;51.456;7.248;2023-04-24T06:26:23;17.30;99.50
2935;DHT22;2462;51.456;7.248;2023-04-24T06:28:50;17.30;99.40
2935;DHT22;2462;51.456;7.248;2023-04-24T06:31:16;17.30;99.40
2935;DHT22;2462;51.456;7.248;2023-04-24T06:33:43;17.30;99.40
2935;DHT22;2462;51.456;7.248;2023-04-24T06:36:08;17.30;99.40
2935;DHT22;2462;51.456;7.248;2023-04-24T06:38:34;17.30;99.40
2935;DHT22;2462;51.456;7.248;2023-04-24T06:40:59;17.30;99.40
2935;DHT22;2462;51.456;7.248;2023-04-24T06:43:25;17.30;99.40
2935;DHT22;2462;51.456;7.248;2023-04-24T06:45:51;17.40;99.40
2935;DHT22;2462;51.456;7.248;2023-04-24T06:48:16;17.40;99.40
2935;DHT22;2462;51.456;7.248;2023-04-24T06:50:42;17.40;99.40
2935;DHT22;2462;51.456;7.248;2023-04-24T06:53:07;17.50;99.40
2935;DHT22;2462;51.456;7.248;2023-04-24T06:55:40;17.50;99.40
2935;DHT22;2462;51.456;7.248;2023-04-24T06:58:05;17.60;99.50
2935;DHT22;2462;51.456;7.248;2023-04-24T07:00:31;17.80;99.50
2935;DHT22;2462;51.456;7.248;2023-04-24T07:02:57;17.80;99.40
2935;DHT22;2462;51.456;7.248;2023-04-24T07:05:23;17.90;99.30
2935;DHT22;2462;51.456;7.248;2023-04-24T07:07:48;17.90;98.90
2935;DHT22;2462;51.456;7.248;2023-04-24T07:10:15;17.90;99.20
2935;DHT22;2462;51.456;7.248;2023-04-24T07:12:40;18.00;99.20
2935;DHT22;2462;51.456;7.248;2023-04-24T07:15:06;18.00;99.20
2935;DHT22;2462;51.456;7.248;2023-04-24T07:17:34;18.10;99.20
2935;DHT22;2462;51.456;7.248;2023-04-24T07:20:00;18.20;99.20
2935;DHT22;2462;51.456;7.248;2023-04-24T07:22:25;18.30;99.10
2935;DHT22;2462;51.456;7.248;2023-04-24T07:24:51;18.30;98.90
2935;DHT22;2462;51.456;7.248;2023-04-24T07:27:16;18.40;99.00
2935;DHT22;2462;51.456;7.248;2023-04-24T07:29:42;18.40;99.10
2935;DHT22;2462;51.456;7.248;2023-04-24T07:32:08;18.40;99.10
2935;DHT22;2462;51.456;7.248;2023-04-24T07:34:34;18.40;98.90
2935;DHT22;2462;51.456;7.248;2023-04-24T07:37:00;18.40;99.00
2935;DHT22;2462;51.456;7.248;2023-04-24T07:39:26;18.40;99.00
2935;DHT22;2462;51.456;7.248;2023-04-24T07:41:51;18.40;98.90
2935;DHT22;2462;51.456;7.248;2023-04-24T07:44:17;18.40;98.90
2935;DHT22;2462;51.456;7.248;2023-04-24T07:46:42;18.30;99.00
2935;DHT22;2462;51.456;7.248;2023-04-24T07:49:08;18.30;99.30
2935;DHT22;2462;51.456;7.248;2023-04-24T07:51:34;18.30;99.10
2935;DHT22;2462;51.456;7.248;2023-04-24T07:54:04;18.40;99.20
2935;DHT22;2462;51.456;7.248;2023-04-24T07:56:31;18.40;99.20
2935;DHT22;2462;51.456;7.248;2023-04-24T07:58:57;18.40;99.10
2935;DHT22;2462;51.456;7.248;2023-04-24T08:01:22;18.40;99.00
2935;DHT22;2462;51.456;7.248;2023-04-24T08:03:48;18.40;99.00
2935;DHT22;2462;51.456;7.248;2023-04-24T08:06:13;18.50;99.10
2935;DHT22;2462;51.456;7.248;2023-04-24T08:08:39;18.50;99.10
2935;DHT22;2462;51.456;7.248;2023-04-24T08:11:05;18.50;99.00
2935;DHT22;2462;51.456;7.248;2023-04-24T08:13:30;18.50;99.00
2935;DHT22;2462;51.456;7.248;2023-04-24T08:15:56;18.50;99.00
2935;DHT22;2462;51.456;7.248;2023-04-24T08:18:22;18.60;99.10
2935;DHT22;2462;51.456;7.248;2023-04-24T08:20:48;18.60;99.10
2935;DHT22;2462;51.456;7.248;2023-04-24T08:23:13;18.60;99.10
2935;DHT22;2462;51.456;7.248;2023-04-24T08:25:39;18.60;99.10
2935;DHT22;2462;51.456;7.248;2023-04-24T08:28:06;18.70;99.00
2935;DHT22;2462;51.456;7.248;2023-04-24T08:30:33;18.70;99.10
2935;DHT22;2462;51.456;7.248;2023-04-24T08:32:59;18.70;99.00
2935;DHT22;2462;51.456;7.248;2023-04-24T08:35:25;18.70;98.90
2935;DHT22;2462;51.456;7.248;2023-04-24T08:37:52;18.70;99.00
2935;DHT22;2462;51.456;7.248;2023-04-24T08:40:22;18.70;99.00
2935;DHT22;2462;51.456;7.248;2023-04-24T08:42:54;18.70;99.00
2935;DHT22;2462;51.456;7.248;2023-04-24T08:45:20;18.70;99.00
2935;DHT22;2462;51.456;7.248;2023-04-24T08:47:46;18.70;99.00
2935;DHT22;2462;51.456;7.248;2023-04-24T08:50:13;18.70;99.40
2935;DHT22;2462;51.456;7.248;2023-04-24T08:52:38;18.70;98.90
2935;DHT22;2462;51.456;7.248;2023-04-24T08:55:05;18.70;99.10
2935;DHT22;2462;51.456;7.248;2023-04-24T08:57:31;18.70;99.20
2935;DHT22;2462;51.456;7.248;2023-04-24T08:59:58;18.70;99.30
2935;DHT22;2462;51.456;7.248;2023-04-24T09:02:25;18.60;99.00
2935;DHT22;2462;51.456;7.248;2023-04-24T09:04:51;18.60;99.10
2935;DHT22;2462;51.456;7.248;2023-04-24T09:07:18;18.60;99.30
2935;DHT22;2462;51.456;7.248;2023-04-24T09:09:45;18.60;99.30
2935;DHT22;2462;51.456;7.248;2023-04-24T09:12:11;18.60;99.40
2935;DHT22;2462;51.456;7.248;2023-04-24T09:14:37;18.50;99.10
2935;DHT22;2462;51.456;7.248;2023-04-24T09:17:10;18.60;99.50
2935;DHT22;2462;51.456;7.248;2023-04-24T09:19:36;18.60;99.70
2935;DHT22;2462;51.456;7.248;2023-04-24T09:22:05;18.60;99.80
2935;DHT22;2462;51.456;7.248;2023-04-24T09:24:31;18.60;99.80
2935;DHT22;2462;51.456;7.248;2023-04-24T09:26:58;18.70;99.80
2935;DHT22;2462;51.456;7.248;2023-04-24T09:29:24;18.60;99.70
2935;DHT22;2462;51.456;7.248;2023-04-24T09:31:50;18.70;99.60
2935;DHT22;2462;51.456;7.248;2023-04-24T09:34:21;18.70;99.50
2935;DHT22;2462;51.456;7.248;2023-04-24T09:36:48;18.70;99.70
2935;DHT22;2462;51.456;7.248;2023-04-24T09:39:15;18.70;99.90
2935;DHT22;2462;51.456;7.248;2023-04-24T09:41:44;18.80;99.90
2935;DHT22;2462;51.456;7.248;2023-04-24T09:44:16;18.80;99.90
2935;DHT22;2462;51.456;7.248;2023-04-24T09:46:43;18.80;99.90
2935;DHT22;2462;51.456;7.248;2023-04-24T09:49:10;18.70;99.90
2935;DHT22;2462;51.456;7.248;2023-04-24T09:51:37;18.70;99.70
2935;DHT22;2462;51.456;7.248;2023-04-24T09:54:04;18.70;99.90
2935;DHT22;2462;51.456;7.248;2023-04-24T09:56:36;18.70;99.90
2935;DHT22;2462;51.456;7.248;2023-04-24T09:59:07;18.70;99.90
2935;DHT22;2462;51.456;7.248;2023-04-24T10:01:33;18.70;99.90
2935;DHT22;2462;51.456;7.248;2023-04-24T10:03:59;18.70;99.90
2935;DHT22;2462;51.456;7.248;2023-04-24T10:06:33;18.70;99.90
2935;DHT22;2462;51.456;7.248;2023-04-24T10:09:00;18.70;99.90
2935;DHT22;2462;51.456;7.248;2023-04-24T10:11:27;18.70;99.90
2935;DHT22;2462;51.456;7.248;2023-04-24T10:13:53;18.60;99.90
2935;DHT22;2462;51.456;7.248;2023-04-24T10:16:20;18.60;99.90
2935;DHT22;2462;51.456;7.248;2023-04-24T10:18:48;18.60;99.90
2935;DHT22;2462;51.456;7.248;2023-04-24T10:21:14;18.60;99.90
2935;DHT22;2462;51.456;7.248;2023-04-24T10:23:41;18.60;99.90
2935;DHT22;2462;51.456;7.248;2023-04-24T10:26:09;18.60;99.90
2935;DHT22;2462;51.456;7.248;2023-04-24T10:28:39;18.60;99.90
2935;DHT22;2462;51.456;7.248;2023-04-24T10:31:06;18.50;99.90
2935;DHT22;2462;51.456;7.248;2023-04-24T10:33:32;18.60;99.90
2935;DHT22;2462;51.456;7.248;2023-04-24T10:35:58;18.50;99.90
2935;DHT22;2462;51.456;7.248;2023-04-24T10:38:25;18.50;99.90
2935;DHT22;2462;51.456;7.248;2023-04-24T10:41:06;18.60;99.90
2935;DHT22;2462;51.456;7.248;2023-04-24T10:43:33;18.60;99.90
2935;DHT22;2462;51.456;7.248;2023-04-24T10:46:03;18.60;99.90
2935;DHT22;2462;51.456;7.248;2023-04-24T10:48:30;18.60;99.90
2935;DHT22;2462;51.456;7.248;2023-04-24T10:50:55;18.60;99.90
2935;DHT22;2462;51.456;7.248;2023-04-24T10:53:23;18.60;99.90
2935;DHT22;2462;51.456;7.248;2023-04-24T10:56:09;18.60;99.90
2935;DHT22;2462;51.456;7.248;2023-04-24T10:58:49;18.70;99.90
2935;DHT22;2462;51.456;7.248;2023-04-24T11:01:27;18.70;99.90
2935;DHT22;2462;51.456;7.248;2023-04-24T11:03:56;18.80;99.90
2935;DHT22;2462;51.456;7.248;2023-04-24T11:06:42;18.80;99.90
2935;DHT22;2462;51.456;7.248;2023-04-24T11:09:10;18.80;99.90
2935;DHT22;2462;51.456;7.248;2023-04-24T11:11:38;18.80;99.90
2935;DHT22;2462;51.456;7.248;2023-04-24T11:14:10;18.80;99.90
2935;DHT22;2462;51.456;7.248;2023-04-24T11:19:07;18.90;99.90
2935;DHT22;2462;51.456;7.248;2023-04-24T11:21:40;18.90;99.90
2935;DHT22;2462;51.456;7.248;2023-04-24T11:24:30;18.90;99.90
2935;DHT22;2462;51.456;7.248;2023-04-24T11:29:49;18.90;99.90
2935;DHT22;2462;51.456;7.248;2023-04-24T11:39:59;19.00;99.90
2935;DHT22;2462;51.456;7.248;2023-04-24T11:42:25;19.10;99.90
2935;DHT22;2462;51.456;7.248;2023-04-24T11:44:54;19.30;99.90
2935;DHT22;2462;51.456;7.248;2023-04-24T11:47:32;19.40;99.90
2935;DHT22;2462;51.456;7.248;2023-04-24T11:50:00;19.50;99.90
2935;DHT22;2462;51.456;7.248;2023-04-24T11:52:30;19.50;99.90
2935;DHT22;2462;51.456;7.248;2023-04-24T11:54:56;19.50;99.90
2935;DHT22;2462;51.456;7.248;2023-04-24T11:57:23;19.50;99.90
2935;DHT22;2462;51.456;7.248;2023-04-24T11:59:51;19.40;99.70
2935;DHT22;2462;51.456;7.248;2023-04-24T12:04:46;19.30;99.90
2935;DHT22;2462;51.456;7.248;2023-04-24T12:07:12;19.20;99.00
2935;DHT22;2462;51.456;7.248;2023-04-24T12:09:46;19.20;99.70
2935;DHT22;2462;51.456;7.248;2023-04-24T12:12:16;19.10;99.90
2935;DHT22;2462;51.456;7.248;2023-04-24T12:14:48;19.10;99.90
2935;DHT22;2462;51.456;7.248;2023-04-24T12:17:14;19.10;99.90
2935;DHT22;2462;51.456;7.248;2023-04-24T12:19:46;19.10;99.90
2935;DHT22;2462;51.456;7.248;2023-04-24T12:22:12;19.20;99.90
2935;DHT22;2462;51.456;7.248;2023-04-24T12:24:56;19.40;99.70
2935;DHT22;2462;51.456;7.248;2023-04-24T12:27:22;19.50;99.90
2935;DHT22;2462;51.456;7.248;2023-04-24T12:29:58;19.70;99.80
2935;DHT22;2462;51.456;7.248;2023-04-24T12:32:24;19.90;99.70
2935;DHT22;2462;51.456;7.248;2023-04-24T12:34:54;19.90;99.60
2935;DHT22;2462;51.456;7.248;2023-04-24T12:37:22;20.00;99.60
2935;DHT22;2462;51.456;7.248;2023-04-24T12:40:07;20.10;99.40
2935;DHT22;2462;51.456;7.248;2023-04-24T12:42:33;20.10;99.20
2935;DHT22;2462;51.456;7.248;2023-04-24T12:45:02;20.10;99.20
2935;DHT22;2462;51.456;7.248;2023-04-24T12:47:28;20.10;99.10
2935;DHT22;2462;51.456;7.248;2023-04-24T12:49:54;20.00;99.20
2935;DHT22;2462;51.456;7.248;2023-04-24T12:52:24;20.00;99.60
2935;DHT22;2462;51.456;7.248;2023-04-24T12:54:53;20.00;99.20
2935;DHT22;2462;51.456;7.248;2023-04-24T12:57:18;19.90;99.20
2935;DHT22;2462;51.456;7.248;2023-04-24T12:59:44;19.90;99.20
2935;DHT22;2462;51.456;7.248;2023-04-24T13:02:11;19.80;99.20
2935;DHT22;2462;51.456;7.248;2023-04-24T13:04:37;19.80;99.40
2935;DHT22;2462;51.456;7.248;2023-04-24T13:07:02;19.80;99.40
2935;DHT22;2462;51.456;7.248;2023-04-24T13:09:28;19.80;99.40
2935;DHT22;2462;51.456;7.248;2023-04-24T13:11:54;19.90;99.40
2935;DHT22;2462;51.456;7.248;2023-04-24T13:14:20;19.90;99.50
2935;DHT22;2462;51.456;7.248;2023-04-24T13:16:45;20.00;99.40
2935;DHT22;2462;51.456;7.248;2023-04-24T13:19:11;20.10;99.30
2935;DHT22;2462;51.456;7.248;2023-04-24T13:21:36;20.20;99.30
2935;DHT22;2462;51.456;7.248;2023-04-24T13:24:02;20.30;99.80
2935;DHT22;2462;51.456;7.248;2023-04-24T13:26:30;20.30;99.60
2935;DHT22;2462;51.456;7.248;2023-04-24T13:28:55;20.40;99.40
2935;DHT22;2462;51.456;7.248;2023-04-24T13:31:21;20.50;99.40
2935;DHT22;2462;51.456;7.248;2023-04-24T13:33:47;20.50;99.20
2935;DHT22;2462;51.456;7.248;2023-04-24T13:36:13;20.50;99.10
2935;DHT22;2462;51.456;7.248;2023-04-24T13:38:38;20.60;99.00
2935;DHT22;2462;51.456;7.248;2023-04-24T13:41:04;20.60;98.90
2935;DHT22;2462;51.456;7.248;2023-04-24T13:43:29;20.50;99.10
2935;DHT22;2462;51.456;7.248;2023-04-24T13:45:55;20.50;99.60
2935;DHT22;2462;51.456;7.248;2023-04-24T13:48:20;20.60;99.20
2935;DHT22;2462;51.456;7.248;2023-04-24T13:50:46;20.70;99.10
2935;DHT22;2462;51.456;7.248;2023-04-24T13:53:13;20.70;99.00
2935;DHT22;2462;51.456;7.248;2023-04-24T13:55:39;20.70;98.80
2935;DHT22;2462;51.456;7.248;2023-04-24T13:58:04;20.70;97.60
2935;DHT22;2462;51.456;7.248;2023-04-24T14:00:30;20.70;98.00
2935;DHT22;2462;51.456;7.248;2023-04-24T14:02:56;20.60;93.30
2935;DHT22;2462;51.456;7.248;2023-04-24T14:05:21;20.10;92.80
2935;DHT22;2462;51.456;7.248;2023-04-24T14:07:47;20.00;93.70
2935;DHT22;2462;51.456;7.248;2023-04-24T14:10:13;20.00;94.40
2935;DHT22;2462;51.456;7.248;2023-04-24T14:12:38;20.10;94.90
2935;DHT22;2462;51.456;7.248;2023-04-24T14:15:04;20.20;95.50
2935;DHT22;2462;51.456;7.248;2023-04-24T14:17:30;20.40;95.70
2935;DHT22;2462;51.456;7.248;2023-04-24T14:19:56;20.40;95.60
2935;DHT22;2462;51.456;7.248;2023-04-24T14:22:22;20.50;95.60
2935;DHT22;2462;51.456;7.248;2023-04-24T14:24:47;20.60;95.70
2935;DHT22;2462;51.456;7.248;2023-04-24T14:27:13;20.70;95.80
2935;DHT22;2462;51.456;7.248;2023-04-24T14:29:39;20.80;95.70
2935;DHT22;2462;51.456;7.248;2023-04-24T14:32:04;20.80;95.80
2935;DHT22;2462;51.456;7.248;2023-04-24T14:34:30;20.90;95.90
2935;DHT22;2462;51.456;7.248;2023-04-24T14:36:56;20.90;95.80
2935;DHT22;2462;51.456;7.248;2023-04-24T14:39:21;20.90;95.80
2935;DHT22;2462;51.456;7.248;2023-04-24T14:41:47;21.00;95.90
2935;DHT22;2462;51.456;7.248;2023-04-24T14:44:12;20.90;95.90
2935;DHT22;2462;51.456;7.248;2023-04-24T14:46:38;20.90;96.00
2935;DHT22;2462;51.456;7.248;2023-04-24T14:49:03;20.90;96.00
2935;DHT22;2462;51.456;7.248;2023-04-24T14:51:29;20.90;96.00
2935;DHT22;2462;51.456;7.248;2023-04-24T14:53:56;20.80;96.10
2935;DHT22;2462;51.456;7.248;2023-04-24T14:56:22;20.80;96.20
2935;DHT22;2462;51.456;7.248;2023-04-24T14:58:48;20.70;96.20
2935;DHT22;2462;51.456;7.248;2023-04-24T15:01:13;20.70;96.30
2935;DHT22;2462;51.456;7.248;2023-04-24T15:03:39;20.60;96.40
2935;DHT22;2462;51.456;7.248;2023-04-24T15:06:05;20.50;96.40
2935;DHT22;2462;51.456;7.248;2023-04-24T15:08:30;20.50;96.50
2935;DHT22;2462;51.456;7.248;2023-04-24T15:10:56;20.40;96.60
2935;DHT22;2462;51.456;7.248;2023-04-24T15:13:21;20.30;96.60
2935;DHT22;2462;51.456;7.248;2023-04-24T15:15:47;20.30;96.70
2935;DHT22;2462;51.456;7.248;2023-04-24T15:18:13;20.20;96.80
2935;DHT22;2462;51.456;7.248;2023-04-24T15:20:38;20.20;96.80
2935;DHT22;2462;51.456;7.248;2023-04-24T15:23:05;20.10;97.00
2935;DHT22;2462;51.456;7.248;2023-04-24T15:25:31;20.10;97.00
2935;DHT22;2462;51.456;7.248;2023-04-24T15:27:58;20.10;97.10
2935;DHT22;2462;51.456;7.248;2023-04-24T15:30:24;20.10;97.20
2935;DHT22;2462;51.456;7.248;2023-04-24T15:32:50;20.10;97.20
2935;DHT22;2462;51.456;7.248;2023-04-24T15:35:15;20.10;97.20
2935;DHT22;2462;51.456;7.248;2023-04-24T15:37:41;20.10;97.20
2935;DHT22;2462;51.456;7.248;2023-04-24T15:40:08;20.10;97.60
2935;DHT22;2462;51.456;7.248;2023-04-24T15:42:33;20.10;97.30
2935;DHT22;2462;51.456;7.248;2023-04-24T15:44:59;20.10;97.30
2935;DHT22;2462;51.456;7.248;2023-04-24T15:47:25;20.10;97.40
2935;DHT22;2462;51.456;7.248;2023-04-24T15:49:52;20.10;95.50
2935;DHT22;2462;51.456;7.248;2023-04-24T15:52:18;19.90;93.60
2935;DHT22;2462;51.456;7.248;2023-04-24T15:54:43;19.80;93.60
2935;DHT22;2462;51.456;7.248;2023-04-24T15:57:09;19.80;94.00
2935;DHT22;2462;51.456;7.248;2023-04-24T15:59:35;19.80;94.60
2935;DHT22;2462;51.456;7.248;2023-04-24T16:02:00;19.80;95.00
2935;DHT22;2462;51.456;7.248;2023-04-24T16:04:26;19.80;95.00
2935;DHT22;2462;51.456;7.248;2023-04-24T16:06:52;19.90;95.10
2935;DHT22;2462;51.456;7.248;2023-04-24T16:09:17;19.90;95.10
2935;DHT22;2462;51.456;7.248;2023-04-24T16:11:43;19.90;95.10
2935;DHT22;2462;51.456;7.248;2023-04-24T16:14:08;19.90;95.20
2935;DHT22;2462;51.456;7.248;2023-04-24T16:16:34;19.90;95.20
2935;DHT22;2462;51.456;7.248;2023-04-24T16:18:59;19.90;95.30